Time;durP1;ratioP1;P1;durP2;ratioP2;P2;SDS_P1;SDS_P2;PMS_P1;PMS_P2;Temp;Humidity;BMP_temperature;BMP_pressure;BME280_temperature;BME280_humidity;BME280_pressure;Samples;Min_cycle;Max_cycle;Signal;HPM_P1;HPM_P2
2023/08/19 00:00:15;;;;;;;34.50;28.23;;;;;;;;;;5048285;28;20088;-59
2023/08/19 00:02:42;;;;;;;44.30;34.03;;;;;;;;;;5048473;28;20045;-60
2023/08/19 00:05:09;;;;;;;43.17;34.87;;;;;;;;;;5049278;28;20086;-59
2023/08/19 00:07:35;;;;;;;57.10;40.53;;;;;;;;;;5049279;28;20469;-60
2023/08/19 00:10:02;;;;;;;50.53;37.37;;;;;;;;;;5049138;28;20394;-59
2023/08/19 00:12:28;;;;;;;45.93;34.67;;;;;;;;;;5048064;28;20048;-59
2023/08/19 00:14:55;;;;;;;49.53;39.37;;;;;;;;;;5049025;28;20037;-59
2023/08/19 00:17:22;;;;;;;52.80;37.10;;;;;;;;;;5049004;28;20049;-59
2023/08/19 00:19:48;;;;;;;47.33;36.97;;;;;;;;;;5048943;28;20493;-59
2023/08/19 00:22:14;;;;;;;50.43;39.10;;;;;;;;;;5048609;28;20488;-59
2023/08/19 00:24:40;;;;;;;51.70;37.80;;;;;;;;;;5048999;28;20477;-59
2023/08/19 00:27:06;;;;;;;51.27;39.53;;;;;;;;;;5048318;28;20135;-59
2023/08/19 00:29:32;;;;;;;73.83;48.37;;;;;;;;;;5048507;28;20390;-59
2023/08/19 00:31:58;;;;;;;55.43;40.83;;;;;;;;;;5048252;28;20041;-59
2023/08/19 00:34:24;;;;;;;72.10;47.23;;;;;;;;;;5048316;28;20045;-61
2023/08/19 00:36:50;;;;;;;66.80;45.47;;;;;;;;;;5048348;28;20098;-59
2023/08/19 00:39:16;;;;;;;59.33;39.97;;;;;;;;;;5048634;28;20099;-59
2023/08/19 00:41:45;;;;;;;57.47;43.17;;;;;;;;;;5048747;28;20168;-59
2023/08/19 00:44:11;;;;;;;64.03;46.37;;;;;;;;;;5063159;28;20044;-59
2023/08/19 00:46:37;;;;;;;57.63;41.03;;;;;;;;;;5068877;28;20040;-60
2023/08/19 00:49:04;;;;;;;61.50;41.90;;;;;;;;;;5048901;28;20086;-59
2023/08/19 00:51:30;;;;;;;56.33;41.27;;;;;;;;;;5048246;28;20102;-59
2023/08/19 00:53:56;;;;;;;55.83;40.80;;;;;;;;;;5048197;28;20049;-59
2023/08/19 00:56:22;;;;;;;61.03;44.47;;;;;;;;;;5048242;28;20047;-59
2023/08/19 00:58:49;;;;;;;60.50;42.50;;;;;;;;;;5048296;28;20045;-59
2023/08/19 01:01:15;;;;;;;59.67;40.93;;;;;;;;;;5053358;28;20131;-59
2023/08/19 01:03:41;;;;;;;54.53;40.10;;;;;;;;;;5048637;28;20128;-59
2023/08/19 01:06:10;;;;;;;60.73;44.47;;;;;;;;;;5064812;28;20071;-59
2023/08/19 01:08:59;;;;;;;53.10;39.40;;;;;;;;;;5069780;28;20052;-59
2023/08/19 01:11:34;;;;;;;57.77;41.03;;;;;;;;;;5062923;28;20060;-59
2023/08/19 01:14:06;;;;;;;56.00;39.57;;;;;;;;;;5060369;28;20052;-60
2023/08/19 01:16:32;;;;;;;51.70;39.23;;;;;;;;;;5048153;28;20037;-59
2023/08/19 01:18:59;;;;;;;50.00;38.07;;;;;;;;;;5047785;28;20446;-59
2023/08/19 01:21:25;;;;;;;45.27;33.07;;;;;;;;;;5047992;28;20053;-59
2023/08/19 01:23:53;;;;;;;55.60;39.87;;;;;;;;;;5046370;28;20041;-59
2023/08/19 01:26:20;;;;;;;56.27;39.47;;;;;;;;;;5048075;28;20056;-60
2023/08/19 01:28:47;;;;;;;44.17;35.13;;;;;;;;;;5047672;28;20053;-59
2023/08/19 01:31:13;;;;;;;45.23;37.20;;;;;;;;;;5047938;28;20518;-60
2023/08/19 01:33:39;;;;;;;63.23;44.37;;;;;;;;;;5047124;28;20324;-59
2023/08/19 01:36:08;;;;;;;47.93;38.57;;;;;;;;;;5047842;28;20045;-59
2023/08/19 01:38:40;;;;;;;45.87;36.20;;;;;;;;;;5047562;28;20045;-60
2023/08/19 01:41:06;;;;;;;54.43;41.20;;;;;;;;;;5047358;28;20041;-60
2023/08/19 01:43:32;;;;;;;50.33;40.13;;;;;;;;;;5047302;28;20049;-59
2023/08/19 01:45:58;;;;;;;50.67;39.97;;;;;;;;;;5047543;28;20132;-59
2023/08/19 01:48:24;;;;;;;49.37;37.90;;;;;;;;;;5047894;28;20337;-60
2023/08/19 01:50:50;;;;;;;47.40;37.23;;;;;;;;;;5047423;28;20549;-59
2023/08/19 01:53:16;;;;;;;54.73;40.57;;;;;;;;;;5047802;28;20044;-60
2023/08/19 01:55:42;;;;;;;46.20;37.33;;;;;;;;;;5047314;28;20487;-60
2023/08/19 01:58:08;;;;;;;45.33;36.57;;;;;;;;;;5047428;28;20052;-59
2023/08/19 02:00:34;;;;;;;56.63;41.33;;;;;;;;;;5047789;28;20500;-59
2023/08/19 02:03:00;;;;;;;53.63;39.20;;;;;;;;;;5047460;28;20051;-59
2023/08/19 02:05:26;;;;;;;52.23;40.40;;;;;;;;;;5047465;28;20165;-59
2023/08/19 02:07:52;;;;;;;50.13;38.40;;;;;;;;;;5047542;28;20140;-59
2023/08/19 02:10:18;;;;;;;48.67;36.10;;;;;;;;;;5046839;28;20053;-60
2023/08/19 02:12:44;;;;;;;49.00;37.50;;;;;;;;;;5047361;28;20041;-60
2023/08/19 02:15:10;;;;;;;45.37;36.77;;;;;;;;;;5047891;28;20051;-59
2023/08/19 02:17:36;;;;;;;44.80;35.23;;;;;;;;;;5047371;28;20076;-59
2023/08/19 02:20:03;;;;;;;44.63;34.00;;;;;;;;;;5046504;28;20084;-60
2023/08/19 02:22:29;;;;;;;52.30;37.93;;;;;;;;;;5047559;28;20476;-60
2023/08/19 02:24:55;;;;;;;53.73;39.47;;;;;;;;;;5047484;28;20076;-59
2023/08/19 02:27:21;;;;;;;44.97;34.93;;;;;;;;;;5053524;28;20041;-59
2023/08/19 02:29:47;;;;;;;49.30;34.47;;;;;;;;;;5066637;28;20072;-59
2023/08/19 02:32:13;;;;;;;42.73;34.00;;;;;;;;;;5067434;28;20053;-59
2023/08/19 02:34:39;;;;;;;47.67;34.40;;;;;;;;;;5066863;28;20041;-60
2023/08/19 02:37:05;;;;;;;43.90;32.80;;;;;;;;;;5071352;28;20040;-59
2023/08/19 02:39:31;;;;;;;47.20;34.20;;;;;;;;;;5070849;28;20044;-60
2023/08/19 02:41:57;;;;;;;47.33;35.30;;;;;;;;;;5070860;28;20037;-59
2023/08/19 02:44:22;;;;;;;41.97;33.53;;;;;;;;;;5070378;28;20045;-59
2023/08/19 02:46:48;;;;;;;51.67;34.57;;;;;;;;;;5070693;28;20398;-60
2023/08/19 02:49:14;;;;;;;44.17;34.43;;;;;;;;;;5070728;28;20047;-59
2023/08/19 02:51:40;;;;;;;57.10;38.90;;;;;;;;;;5066941;28;20097;-59
2023/08/19 02:54:07;;;;;;;57.43;39.60;;;;;;;;;;5070186;28;20094;-59
2023/08/19 02:56:33;;;;;;;66.40;43.87;;;;;;;;;;5070081;28;20044;-59
2023/08/19 02:58:59;;;;;;;50.10;36.23;;;;;;;;;;5070754;28;20052;-59
2023/08/19 03:01:25;;;;;;;58.83;40.60;;;;;;;;;;5055742;28;20045;-59
2023/08/19 03:03:51;;;;;;;55.30;38.03;;;;;;;;;;5050418;28;20045;-59
2023/08/19 03:06:17;;;;;;;44.07;33.23;;;;;;;;;;5050298;28;20072;-59
2023/08/19 03:08:43;;;;;;;48.57;35.80;;;;;;;;;;5050288;28;20049;-59
2023/08/19 03:11:09;;;;;;;46.13;34.73;;;;;;;;;;5049743;28;20059;-59
2023/08/19 03:13:35;;;;;;;41.03;33.47;;;;;;;;;;5055108;28;20040;-59
2023/08/19 03:16:01;;;;;;;38.33;32.23;;;;;;;;;;5070338;28;20478;-59
2023/08/19 03:18:28;;;;;;;43.00;33.00;;;;;;;;;;5069778;28;20056;-59
2023/08/19 03:20:58;;;;;;;40.27;32.13;;;;;;;;;;5070214;28;20044;-59
2023/08/19 03:23:28;;;;;;;36.00;30.93;;;;;;;;;;5069886;28;20037;-59
2023/08/19 03:25:55;;;;;;;42.33;32.30;;;;;;;;;;5069331;28;20410;-59
2023/08/19 03:28:21;;;;;;;47.27;35.03;;;;;;;;;;5068152;28;20045;-60
2023/08/19 03:30:47;;;;;;;37.30;29.83;;;;;;;;;;5069898;28;20044;-59
2023/08/19 03:33:13;;;;;;;36.93;30.70;;;;;;;;;;5069538;28;20040;-59
2023/08/19 03:35:39;;;;;;;40.40;30.73;;;;;;;;;;5069605;28;20037;-59
2023/08/19 03:38:05;;;;;;;41.60;30.77;;;;;;;;;;5065771;28;20503;-60
2023/08/19 03:40:31;;;;;;;36.67;27.80;;;;;;;;;;5069580;28;20056;-59
2023/08/19 03:42:57;;;;;;;34.43;29.07;;;;;;;;;;5069433;28;20044;-59
2023/08/19 03:45:22;;;;;;;35.00;28.37;;;;;;;;;;5070226;28;20133;-59
2023/08/19 03:47:48;;;;;;;39.07;29.80;;;;;;;;;;5069158;28;20499;-59
2023/08/19 03:50:14;;;;;;;28.43;25.37;;;;;;;;;;5069841;28;20041;-59
2023/08/19 03:52:40;;;;;;;29.63;25.83;;;;;;;;;;5068162;28;20041;-59
2023/08/19 03:55:07;;;;;;;36.43;27.53;;;;;;;;;;5068829;28;20045;-59
2023/08/19 03:57:33;;;;;;;31.60;26.40;;;;;;;;;;5068264;28;20047;-59
2023/08/19 03:59:59;;;;;;;34.43;29.50;;;;;;;;;;5068737;28;20040;-59
2023/08/19 04:02:25;;;;;;;28.47;25.00;;;;;;;;;;5069883;28;20063;-59
2023/08/19 04:05:04;;;;;;;34.73;25.87;;;;;;;;;;5068863;28;20044;-60
2023/08/19 04:07:30;;;;;;;30.77;25.73;;;;;;;;;;5069357;28;20056;-59
2023/08/19 04:09:57;;;;;;;30.80;26.80;;;;;;;;;;5069380;28;20040;-60
2023/08/19 04:12:24;;;;;;;28.57;24.17;;;;;;;;;;5069356;28;20395;-60
2023/08/19 04:14:50;;;;;;;29.73;24.13;;;;;;;;;;5051044;28;20095;-60
2023/08/19 04:17:16;;;;;;;30.70;23.90;;;;;;;;;;5048743;28;20449;-59
2023/08/19 04:19:42;;;;;;;25.90;22.60;;;;;;;;;;5048997;28;20052;-59
2023/08/19 04:22:08;;;;;;;33.70;25.03;;;;;;;;;;5049207;28;20558;-59
2023/08/19 04:24:34;;;;;;;31.83;23.63;;;;;;;;;;5049245;28;20052;-59
2023/08/19 04:27:02;;;;;;;25.87;23.17;;;;;;;;;;5048972;28;20049;-59
2023/08/19 04:29:28;;;;;;;28.17;23.50;;;;;;;;;;5048364;28;20056;-60
2023/08/19 04:31:54;;;;;;;27.00;22.97;;;;;;;;;;5048747;28;20040;-60
2023/08/19 04:34:24;;;;;;;27.53;22.93;;;;;;;;;;5048847;28;20044;-60
2023/08/19 04:36:50;;;;;;;25.87;21.90;;;;;;;;;;5048551;28;20045;-59
2023/08/19 04:39:16;;;;;;;28.43;23.00;;;;;;;;;;5048760;28;20116;-60
2023/08/19 04:41:42;;;;;;;25.43;22.73;;;;;;;;;;5057876;28;20060;-60
2023/08/19 04:44:08;;;;;;;28.73;20.93;;;;;;;;;;5067707;28;20056;-60
2023/08/19 04:46:34;;;;;;;26.47;19.93;;;;;;;;;;5050201;28;20558;-60
2023/08/19 04:49:00;;;;;;;25.47;20.97;;;;;;;;;;5048979;28;20248;-60
2023/08/19 04:51:26;;;;;;;25.17;19.33;;;;;;;;;;5048559;28;20053;-60
2023/08/19 04:53:52;;;;;;;23.47;19.50;;;;;;;;;;5048103;28;20155;-60
2023/08/19 04:56:18;;;;;;;23.90;20.67;;;;;;;;;;5048795;28;20041;-60
2023/08/19 04:58:44;;;;;;;22.93;19.77;;;;;;;;;;5048206;28;20083;-60
2023/08/19 05:01:10;;;;;;;22.03;19.77;;;;;;;;;;5048060;28;20336;-61
2023/08/19 05:03:36;;;;;;;21.43;19.17;;;;;;;;;;5047800;28;20044;-59
2023/08/19 05:06:02;;;;;;;19.57;16.83;;;;;;;;;;5064200;28;20489;-60
2023/08/19 05:08:29;;;;;;;20.37;18.27;;;;;;;;;;5068397;28;20052;-60
2023/08/19 05:10:55;;;;;;;22.97;18.43;;;;;;;;;;5068633;28;20543;-60
2023/08/19 05:13:21;;;;;;;19.50;17.27;;;;;;;;;;5066941;28;20040;-60
2023/08/19 05:15:47;;;;;;;22.47;17.43;;;;;;;;;;5056472;28;20549;-60
2023/08/19 05:18:13;;;;;;;20.73;16.90;;;;;;;;;;5048221;28;20040;-60
2023/08/19 05:20:39;;;;;;;19.97;16.50;;;;;;;;;;5047929;28;20049;-60
2023/08/19 05:23:05;;;;;;;18.97;16.60;;;;;;;;;;5047862;28;20045;-60
2023/08/19 05:25:31;;;;;;;19.03;16.60;;;;;;;;;;5047634;28;20049;-59
2023/08/19 05:27:57;;;;;;;20.53;16.97;;;;;;;;;;5047875;28;20041;-59
2023/08/19 05:30:23;;;;;;;18.53;16.63;;;;;;;;;;5051397;28;20454;-60
2023/08/19 05:32:50;;;;;;;18.70;16.20;;;;;;;;;;5048319;28;20056;-59
2023/08/19 05:35:16;;;;;;;19.80;15.83;;;;;;;;;;5048059;28;20471;-59
2023/08/19 05:37:42;;;;;;;18.73;16.93;;;;;;;;;;5047859;28;20048;-59
2023/08/19 05:40:08;;;;;;;18.10;16.20;;;;;;;;;;5047645;28;20041;-60
2023/08/19 05:42:34;;;;;;;18.90;16.93;;;;;;;;;;5047540;28;20068;-60
2023/08/19 05:45:00;;;;;;;20.03;16.63;;;;;;;;;;5047687;28;20041;-59
2023/08/19 05:47:26;;;;;;;21.73;16.70;;;;;;;;;;5047877;28;20170;-59
2023/08/19 05:49:53;;;;;;;20.40;16.90;;;;;;;;;;5047768;28;20465;-60
2023/08/19 05:52:19;;;;;;;18.60;16.60;;;;;;;;;;5047520;28;20611;-61
2023/08/19 05:54:45;;;;;;;19.93;17.03;;;;;;;;;;5047587;28;20144;-60
2023/08/19 05:57:10;;;;;;;18.73;16.67;;;;;;;;;;5047519;28;20051;-60
2023/08/19 05:59:36;;;;;;;23.90;16.30;;;;;;;;;;5047740;28;20730;-60
2023/08/19 06:02:02;;;;;;;18.93;15.83;;;;;;;;;;5061869;28;20084;-60
2023/08/19 06:04:28;;;;;;;17.80;16.00;;;;;;;;;;5067510;28;20051;-60
2023/08/19 06:06:54;;;;;;;17.90;15.67;;;;;;;;;;5066976;28;20127;-60
2023/08/19 06:09:21;;;;;;;17.23;15.50;;;;;;;;;;5067419;28;20045;-60
2023/08/19 06:11:51;;;;;;;19.77;15.10;;;;;;;;;;5071013;28;20079;-60
2023/08/19 06:14:17;;;;;;;17.47;15.10;;;;;;;;;;5070844;28;20538;-60
2023/08/19 06:16:43;;;;;;;17.73;14.27;;;;;;;;;;5071640;28;20467;-59
2023/08/19 06:19:09;;;;;;;16.93;13.57;;;;;;;;;;5070227;28;20078;-60
2023/08/19 06:21:36;;;;;;;19.23;13.73;;;;;;;;;;5062438;28;20041;-59
2023/08/19 06:24:02;;;;;;;14.90;13.43;;;;;;;;;;5061179;28;20052;-59
2023/08/19 06:26:28;;;;;;;13.93;12.43;;;;;;;;;;5051458;28;20086;-59
2023/08/19 06:28:54;;;;;;;15.67;12.93;;;;;;;;;;5069512;28;20079;-59
2023/08/19 06:31:20;;;;;;;14.67;13.20;;;;;;;;;;5050986;28;20045;-60
2023/08/19 06:33:46;;;;;;;14.53;12.73;;;;;;;;;;5050680;28;20053;-61
2023/08/19 06:36:15;;;;;;;13.37;11.97;;;;;;;;;;5050412;28;20055;-60
2023/08/19 06:38:42;;;;;;;13.90;12.50;;;;;;;;;;5050433;28;20717;-60
2023/08/19 06:41:12;;;;;;;14.23;12.40;;;;;;;;;;5050423;28;20044;-60
2023/08/19 06:43:38;;;;;;;13.13;11.73;;;;;;;;;;5050594;28;20044;-60
2023/08/19 06:46:05;;;;;;;17.90;12.57;;;;;;;;;;5050554;28;20049;-60
2023/08/19 06:48:32;;;;;;;13.93;11.77;;;;;;;;;;5056627;28;20047;-60
2023/08/19 06:50:58;;;;;;;24.10;13.13;;;;;;;;;;5070248;28;20055;-60
2023/08/19 06:53:24;;;;;;;16.47;12.37;;;;;;;;;;5070277;28;20048;-59
2023/08/19 06:55:53;;;;;;;15.97;11.83;;;;;;;;;;5070341;28;20044;-59
2023/08/19 06:58:25;;;;;;;14.40;11.70;;;;;;;;;;5069996;28;20062;-59
2023/08/19 07:00:52;;;;;;;13.73;12.30;;;;;;;;;;5070300;28;20048;-59
2023/08/19 07:03:18;;;;;;;15.83;12.13;;;;;;;;;;5068744;28;20045;-60
2023/08/19 07:05:45;;;;;;;14.47;12.57;;;;;;;;;;5056021;28;20048;-60
2023/08/19 07:08:12;;;;;;;13.60;12.20;;;;;;;;;;5050437;28;20083;-60
2023/08/19 07:10:38;;;;;;;13.30;11.87;;;;;;;;;;5049858;28;20043;-61
2023/08/19 07:13:04;;;;;;;15.53;10.77;;;;;;;;;;5050275;28;20033;-61
2023/08/19 07:15:30;;;;;;;14.80;11.87;;;;;;;;;;5049833;28;20049;-61
2023/08/19 07:17:58;;;;;;;13.37;11.50;;;;;;;;;;5050093;28;20172;-61
2023/08/19 07:20:24;;;;;;;14.77;12.27;;;;;;;;;;5050246;28;20049;-61
2023/08/19 07:22:52;;;;;;;16.87;11.77;;;;;;;;;;5049526;28;20056;-61
2023/08/19 07:25:19;;;;;;;13.80;10.97;;;;;;;;;;5050285;28;20440;-61
2023/08/19 07:27:45;;;;;;;18.33;11.43;;;;;;;;;;5049551;28;20091;-61
2023/08/19 07:30:11;;;;;;;15.03;10.00;;;;;;;;;;5061212;28;20090;-61
2023/08/19 07:32:38;;;;;;;11.50;10.30;;;;;;;;;;5069763;28;20045;-61
2023/08/19 07:35:05;;;;;;;18.03;10.33;;;;;;;;;;5069765;28;20045;-61
2023/08/19 07:37:31;;;;;;;13.33;10.00;;;;;;;;;;5069343;28;20560;-61
2023/08/19 07:39:58;;;;;;;11.83;10.50;;;;;;;;;;5054018;28;20045;-61
2023/08/19 07:42:24;;;;;;;13.83;10.53;;;;;;;;;;5050223;28;20097;-61
2023/08/19 07:44:50;;;;;;;13.63;10.10;;;;;;;;;;5056738;28;20048;-61
2023/08/19 07:47:16;;;;;;;11.95;9.02;;;;;;;;;;5054588;28;20041;-62
2023/08/19 07:49:42;;;;;;;13.50;10.20;;;;;;;;;;5049747;28;20131;-61
2023/08/19 07:52:08;;;;;;;15.50;9.10;;;;;;;;;;5049135;28;20040;-61
2023/08/19 07:54:34;;;;;;;11.93;8.63;;;;;;;;;;5049184;28;20052;-61
2023/08/19 07:57:00;;;;;;;11.13;8.02;;;;;;;;;;5048919;28;20037;-61
2023/08/19 07:59:26;;;;;;;13.27;8.07;;;;;;;;;;5049440;28;20049;-61
2023/08/19 08:01:52;;;;;;;9.97;8.57;;;;;;;;;;5054194;28;20047;-62
2023/08/19 08:04:19;;;;;;;10.70;8.13;;;;;;;;;;5069109;28;20045;-61
2023/08/19 08:06:51;;;;;;;12.32;8.07;;;;;;;;;;5066826;28;20403;-61
2023/08/19 08:09:18;;;;;;;8.48;7.47;;;;;;;;;;5056056;28;20060;-61
2023/08/19 08:11:45;;;;;;;12.13;7.38;;;;;;;;;;5049053;28;20368;-61
2023/08/19 08:14:11;;;;;;;11.05;7.50;;;;;;;;;;5048525;28;20045;-61
2023/08/19 08:16:37;;;;;;;9.68;7.80;;;;;;;;;;5048731;28;20049;-62
2023/08/19 08:19:03;;;;;;;11.98;7.80;;;;;;;;;;5050938;28;20044;-61
2023/08/19 08:21:29;;;;;;;9.77;7.65;;;;;;;;;;5068722;28;20041;-60
2023/08/19 08:23:55;;;;;;;12.30;6.75;;;;;;;;;;5068951;28;20064;-61
2023/08/19 08:26:22;;;;;;;11.63;6.63;;;;;;;;;;5067324;28;20055;-61
2023/08/19 08:28:48;;;;;;;11.77;6.53;;;;;;;;;;5068517;28;20052;-61
2023/08/19 08:31:14;;;;;;;11.20;7.30;;;;;;;;;;5068383;28;20078;-61
2023/08/19 08:33:40;;;;;;;9.48;6.63;;;;;;;;;;5068059;28;20059;-61
2023/08/19 08:36:06;;;;;;;10.98;6.00;;;;;;;;;;5049296;28;20044;-61
2023/08/19 08:38:32;;;;;;;8.15;5.32;;;;;;;;;;5048264;28;20051;-61
2023/08/19 08:41:02;;;;;;;12.20;6.13;;;;;;;;;;5047832;28;20522;-61
2023/08/19 08:43:29;;;;;;;11.35;6.00;;;;;;;;;;5054283;28;20050;-61
2023/08/19 08:45:55;;;;;;;10.50;5.47;;;;;;;;;;5048744;28;20047;-61
2023/08/19 08:48:22;;;;;;;12.85;5.38;;;;;;;;;;5065417;28;20400;-61
2023/08/19 08:50:48;;;;;;;8.43;5.75;;;;;;;;;;5068395;28;20102;-62
2023/08/19 08:53:14;;;;;;;9.10;6.20;;;;;;;;;;5060790;28;20044;-61
2023/08/19 08:55:40;;;;;;;8.85;5.25;;;;;;;;;;5059322;28;20102;-62
2023/08/19 08:58:06;;;;;;;10.30;6.20;;;;;;;;;;5054540;28;20088;-61
2023/08/19 09:00:32;;;;;;;8.95;5.50;;;;;;;;;;5048269;28;20584;-61
2023/08/19 09:02:59;;;;;;;11.25;5.90;;;;;;;;;;5048063;28;20552;-61
2023/08/19 09:05:29;;;;;;;9.82;5.57;;;;;;;;;;5048111;28;20448;-61
2023/08/19 09:07:56;;;;;;;13.23;5.25;;;;;;;;;;5048124;28;20049;-61
2023/08/19 09:10:24;;;;;;;9.70;5.13;;;;;;;;;;5047801;28;20099;-61
2023/08/19 09:12:53;;;;;;;10.35;5.63;;;;;;;;;;5047854;28;20037;-62
2023/08/19 09:15:19;;;;;;;12.07;5.93;;;;;;;;;;5047928;28;20055;-61
2023/08/19 09:17:45;;;;;;;8.82;5.50;;;;;;;;;;5047975;28;20092;-61
2023/08/19 09:20:12;;;;;;;11.85;5.85;;;;;;;;;;5053122;28;20142;-61
2023/08/19 09:22:42;;;;;;;8.77;5.20;;;;;;;;;;5065579;28;20048;-61
2023/08/19 09:25:08;;;;;;;8.25;5.10;;;;;;;;;;5067857;28;20044;-61
2023/08/19 09:27:34;;;;;;;11.55;5.70;;;;;;;;;;5068140;28;20048;-62
2023/08/19 09:30:00;;;;;;;9.68;5.45;;;;;;;;;;5068040;28;20181;-61
2023/08/19 09:32:30;;;;;;;9.15;4.88;;;;;;;;;;5068098;28;20048;-61
2023/08/19 09:35:02;;;;;;;13.25;5.90;;;;;;;;;;5065713;28;20569;-61
2023/08/19 09:37:29;;;;;;;9.45;5.30;;;;;;;;;;5065702;28;20040;-61
2023/08/19 09:39:55;;;;;;;6.85;5.25;;;;;;;;;;5067399;28;20040;-62
2023/08/19 09:42:21;;;;;;;9.40;5.55;;;;;;;;;;5067469;28;20448;-61
2023/08/19 09:44:47;;;;;;;9.00;5.05;;;;;;;;;;5063212;28;20037;-62
2023/08/19 09:47:13;;;;;;;9.75;5.22;;;;;;;;;;5059656;28;20040;-61
2023/08/19 09:49:39;;;;;;;9.18;5.45;;;;;;;;;;5070984;28;20119;-61
2023/08/19 09:52:06;;;;;;;8.43;5.35;;;;;;;;;;5070240;28;20498;-61
2023/08/19 09:54:32;;;;;;;12.05;5.82;;;;;;;;;;5051734;28;20533;-61
2023/08/19 09:56:58;;;;;;;10.27;5.50;;;;;;;;;;5051533;28;20048;-62
2023/08/19 09:59:25;;;;;;;7.53;5.20;;;;;;;;;;5054588;28;20121;-61
2023/08/19 10:01:52;;;;;;;10.60;5.40;;;;;;;;;;5071495;28;20108;-61
2023/08/19 10:04:21;;;;;;;13.43;5.28;;;;;;;;;;5056920;28;20049;-61
2023/08/19 10:06:51;;;;;;;10.00;5.43;;;;;;;;;;5050855;28;20051;-61
2023/08/19 10:09:21;;;;;;;13.10;5.55;;;;;;;;;;5051350;28;20055;-62
2023/08/19 10:11:48;;;;;;;11.68;6.05;;;;;;;;;;5049541;28;20049;-61
2023/08/19 10:14:15;;;;;;;8.35;5.65;;;;;;;;;;5051486;28;20052;-62
2023/08/19 10:16:43;;;;;;;11.15;6.43;;;;;;;;;;5051305;28;20433;-62
2023/08/19 10:19:11;;;;;;;10.98;5.57;;;;;;;;;;5051742;28;20047;-61
2023/08/19 10:21:38;;;;;;;9.02;5.50;;;;;;;;;;5051324;28;20402;-61
2023/08/19 10:24:04;;;;;;;11.70;6.53;;;;;;;;;;5063706;28;20041;-61
2023/08/19 10:26:32;;;;;;;10.45;6.03;;;;;;;;;;5050939;28;20132;-61
2023/08/19 10:29:08;;;;;;;12.10;7.50;;;;;;;;;;5051373;28;20506;-61
2023/08/19 10:31:35;;;;;;;8.88;6.15;;;;;;;;;;5051203;28;20498;-61
2023/08/19 10:34:10;;;;;;;11.60;7.40;;;;;;;;;;5050279;28;20057;-61
2023/08/19 10:36:37;;;;;;;9.48;6.55;;;;;;;;;;5060071;28;20569;-61
2023/08/19 10:39:07;;;;;;;9.38;7.00;;;;;;;;;;5069531;28;20048;-61
2023/08/19 10:41:35;;;;;;;12.38;7.10;;;;;;;;;;5070722;28;20057;-62
2023/08/19 10:44:02;;;;;;;11.63;7.50;;;;;;;;;;5070098;28;20048;-62
2023/08/19 10:46:33;;;;;;;13.38;7.75;;;;;;;;;;5070074;28;20560;-61
2023/08/19 10:48:59;;;;;;;11.98;7.15;;;;;;;;;;5071094;28;20045;-61
2023/08/19 10:51:43;;;;;;;14.27;9.10;;;;;;;;;;5070429;28;20098;-62
2023/08/19 10:54:09;;;;;;;11.23;8.00;;;;;;;;;;5056896;28;20079;-61
2023/08/19 10:56:36;;;;;;;11.55;6.97;;;;;;;;;;5065958;28;20076;-62
2023/08/19 10:59:02;;;;;;;11.52;7.95;;;;;;;;;;5064226;28;20040;-61
2023/08/19 11:01:32;;;;;;;9.90;7.63;;;;;;;;;;5067266;28;20080;-62
2023/08/19 11:03:59;;;;;;;12.82;7.72;;;;;;;;;;5069961;28;20051;-62
2023/08/19 11:06:32;;;;;;;11.07;7.53;;;;;;;;;;5070239;28;20458;-62
2023/08/19 11:08:57;;;;;;;;;;;;;;;;;;5070888;28;20060;-62
2023/08/19 11:11:24;;;;;;;9.98;8.15;;;;;;;;;;5069283;28;19928;-62
2023/08/19 11:13:50;;;;;;;17.67;9.00;;;;;;;;;;5061247;28;20053;-61
2023/08/19 11:16:16;;;;;;;15.68;9.43;;;;;;;;;;5061085;28;20055;-62
2023/08/19 11:18:42;;;;;;;14.80;10.30;;;;;;;;;;5061056;28;20553;-61
2023/08/19 11:21:08;;;;;;;14.93;9.00;;;;;;;;;;5068902;28;20052;-61
2023/08/19 11:23:34;;;;;;;12.88;9.70;;;;;;;;;;5070260;28;20143;-61
2023/08/19 11:26:00;;;;;;;11.32;9.95;;;;;;;;;;5069852;28;20654;-61
2023/08/19 11:28:26;;;;;;;12.23;8.38;;;;;;;;;;5070052;28;20044;-62
2023/08/19 11:30:52;;;;;;;11.48;9.23;;;;;;;;;;5068443;28;20094;-61
2023/08/19 11:33:19;;;;;;;14.23;11.15;;;;;;;;;;5068474;28;20037;-62
2023/08/19 11:35:46;;;;;;;12.07;10.20;;;;;;;;;;5070358;28;20066;-61
2023/08/19 11:38:13;;;;;;;12.82;10.65;;;;;;;;;;5069440;28;20048;-62
2023/08/19 11:40:39;;;;;;;16.50;10.93;;;;;;;;;;5068361;28;20037;-62
2023/08/19 11:43:06;;;;;;;16.70;10.30;;;;;;;;;;5068653;28;20098;-61
2023/08/19 11:45:39;;;;;;;11.88;10.30;;;;;;;;;;5069960;28;20090;-62
2023/08/19 11:48:12;;;;;;;12.35;10.00;;;;;;;;;;5064871;28;20498;-62
2023/08/19 11:50:43;;;;;;;12.98;11.60;;;;;;;;;;5068216;28;20040;-62
2023/08/19 11:53:09;;;;;;;15.05;13.45;;;;;;;;;;5068811;28;20670;-62
2023/08/19 11:55:36;;;;;;;15.75;14.15;;;;;;;;;;5068510;28;20052;-62
2023/08/19 11:58:03;;;;;;;16.80;14.13;;;;;;;;;;5068424;28;20497;-62
2023/08/19 12:00:29;;;;;;;17.63;15.07;;;;;;;;;;5068253;28;20494;-62
2023/08/19 12:02:55;;;;;;;21.02;19.00;;;;;;;;;;5069160;28;20045;-60
2023/08/19 12:05:22;;;;;;;27.02;23.98;;;;;;;;;;5055307;28;20053;-60
2023/08/19 12:07:48;;;;;;;27.02;23.92;;;;;;;;;;5060586;28;20060;-59
2023/08/19 12:10:14;;;;;;;30.85;27.52;;;;;;;;;;5069068;28;20071;-60
2023/08/19 12:12:42;;;;;;;32.45;28.95;;;;;;;;;;5063537;28;20037;-60
2023/08/19 12:15:09;;;;;;;33.05;29.50;;;;;;;;;;5069381;28;20055;-60
2023/08/19 12:17:35;;;;;;;30.52;27.25;;;;;;;;;;5068059;28;20052;-60
2023/08/19 12:20:01;;;;;;;32.85;27.13;;;;;;;;;;5068723;28;20537;-60
2023/08/19 12:22:27;;;;;;;28.50;25.52;;;;;;;;;;5065019;28;20052;-60
2023/08/19 12:24:53;;;;;;;27.45;24.58;;;;;;;;;;5068673;28;20038;-60
2023/08/19 12:27:19;;;;;;;31.38;27.48;;;;;;;;;;5068575;28;20047;-61
2023/08/19 12:29:45;;;;;;;32.20;26.90;;;;;;;;;;5068053;28;20059;-60
2023/08/19 12:32:11;;;;;;;34.83;28.40;;;;;;;;;;5067687;28;20045;-60
2023/08/19 12:34:37;;;;;;;28.58;25.33;;;;;;;;;;5069367;28;20048;-60
2023/08/19 12:37:03;;;;;;;29.83;25.88;;;;;;;;;;5066901;28;20040;-62
2023/08/19 12:39:29;;;;;;;29.55;24.20;;;;;;;;;;5060642;28;20594;-60
2023/08/19 12:41:55;;;;;;;16.90;14.00;;;;;;;;;;5066954;28;20095;-61
2023/08/19 12:44:21;;;;;;;13.20;11.63;;;;;;;;;;5068535;28;20077;-60
2023/08/19 12:46:49;;;;;;;18.42;14.23;;;;;;;;;;5068282;28;20173;-60
2023/08/19 12:49:15;;;;;;;16.30;13.23;;;;;;;;;;5069215;28;20445;-60
2023/08/19 12:51:42;;;;;;;16.77;12.57;;;;;;;;;;5068334;28;20363;-60
2023/08/19 12:54:09;;;;;;;16.55;13.95;;;;;;;;;;5069216;28;20063;-60
2023/08/19 12:56:35;;;;;;;18.55;14.07;;;;;;;;;;5053076;28;20462;-60
2023/08/19 12:59:00;;;;;;;13.82;12.43;;;;;;;;;;5048679;28;20059;-60
2023/08/19 13:01:26;;;;;;;15.02;12.32;;;;;;;;;;5048857;28;20033;-60
2023/08/19 13:03:52;;;;;;;12.65;8.15;;;;;;;;;;5063876;28;20041;-60
2023/08/19 13:06:18;;;;;;;11.40;7.50;;;;;;;;;;5068364;28;20044;-60
2023/08/19 13:08:44;;;;;;;14.45;8.35;;;;;;;;;;5068612;28;20090;-60
2023/08/19 13:11:11;;;;;;;10.10;6.35;;;;;;;;;;5068367;28;20141;-60
2023/08/19 13:13:38;;;;;;;9.18;6.95;;;;;;;;;;5066864;28;20048;-60
2023/08/19 13:16:04;;;;;;;10.77;6.95;;;;;;;;;;5068397;28;20052;-60
2023/08/19 13:18:30;;;;;;;8.80;6.63;;;;;;;;;;5067764;28;20044;-60
2023/08/19 13:20:55;;;;;;;10.00;7.03;;;;;;;;;;5068387;28;20051;-60
2023/08/19 13:23:21;;;;;;;12.75;7.30;;;;;;;;;;5068602;28;20040;-60
2023/08/19 13:25:47;;;;;;;8.35;6.55;;;;;;;;;;5068163;28;20493;-60
2023/08/19 13:28:13;;;;;;;10.82;6.57;;;;;;;;;;5068246;28;20299;-60
2023/08/19 13:30:39;;;;;;;6.93;5.00;;;;;;;;;;5051783;28;20045;-60
2023/08/19 13:33:07;;;;;;;7.93;4.75;;;;;;;;;;5048286;28;20041;-60
2023/08/19 13:35:34;;;;;;;6.63;4.30;;;;;;;;;;5047923;28;20076;-60
2023/08/19 13:38:00;;;;;;;4.93;3.15;;;;;;;;;;5048300;28;20057;-60
2023/08/19 13:40:26;;;;;;;5.45;3.58;;;;;;;;;;5047504;28;20063;-60
2023/08/19 13:42:52;;;;;;;5.22;3.90;;;;;;;;;;5048051;28;20080;-60
2023/08/19 13:45:18;;;;;;;8.43;4.43;;;;;;;;;;5048166;28;20091;-60
2023/08/19 13:47:44;;;;;;;6.53;4.90;;;;;;;;;;5048314;28;20090;-60
2023/08/19 13:50:10;;;;;;;6.40;4.53;;;;;;;;;;5048082;28;20560;-60
2023/08/19 13:52:41;;;;;;;7.07;4.82;;;;;;;;;;5047771;28;20140;-60
2023/08/19 13:55:08;;;;;;;11.98;6.10;;;;;;;;;;5065792;28;20409;-60
2023/08/19 13:57:34;;;;;;;9.05;5.80;;;;;;;;;;5067841;28;20075;-60
2023/08/19 14:00:00;;;;;;;10.40;6.30;;;;;;;;;;5067524;28;20041;-60
2023/08/19 14:02:26;;;;;;;9.70;6.25;;;;;;;;;;5068062;28;20048;-60
2023/08/19 14:04:52;;;;;;;10.02;6.55;;;;;;;;;;5049899;28;20115;-60
2023/08/19 14:07:18;;;;;;;12.20;7.10;;;;;;;;;;5063433;28;20515;-60
2023/08/19 14:09:44;;;;;;;11.98;6.18;;;;;;;;;;5067738;28;20083;-60
2023/08/19 14:12:10;;;;;;;11.60;6.45;;;;;;;;;;5067783;28;20050;-60
2023/08/19 14:14:37;;;;;;;10.88;6.32;;;;;;;;;;5067167;28;20044;-60
2023/08/19 14:17:03;;;;;;;11.10;6.53;;;;;;;;;;5067840;28;20127;-60
2023/08/19 14:19:29;;;;;;;9.27;6.35;;;;;;;;;;5067641;28;20072;-60